Time;durP1;ratioP1;P1;durP2;ratioP2;P2;SDS_P1;SDS_P2;PMS_P1;PMS_P2;Temp;Humidity;BMP_temperature;BMP_pressure;BME280_temperature;BME280_humidity;BME280_pressure;Samples;Min_cycle;Max_cycle;Signal;HPM_P1;HPM_P2
2022/06/13 00:00:08;;;;;;;4.57;3.95;;;;;;;;;;5117478;27;20035;-68
2022/06/13 00:02:36;;;;;;;4.22;3.92;;;;;;;;;;5117459;27;20034;-68
2022/06/13 00:05:03;;;;;;;4.35;3.90;;;;;;;;;;5117445;27;20382;-66
2022/06/13 00:07:28;;;;;;;4.03;3.60;;;;;;;;;;5135594;27;20022;-65
2022/06/13 00:09:53;;;;;;;5.43;4.07;;;;;;;;;;5135398;27;20371;-65
2022/06/13 00:12:19;;;;;;;3.83;3.63;;;;;;;;;;5135757;27;20062;-66
2022/06/13 00:14:44;;;;;;;4.38;4.03;;;;;;;;;;5134681;27;20027;-66
2022/06/13 00:17:10;;;;;;;4.25;3.92;;;;;;;;;;5135130;27;20029;-66
2022/06/13 00:19:36;;;;;;;4.93;4.53;;;;;;;;;;5135723;27;20034;-66
2022/06/13 00:22:01;;;;;;;4.53;4.13;;;;;;;;;;5135308;27;20046;-65
2022/06/13 00:24:27;;;;;;;4.30;3.90;;;;;;;;;;5135434;27;20024;-65
2022/06/13 00:26:52;;;;;;;4.90;4.35;;;;;;;;;;5117194;27;20440;-65
2022/06/13 00:29:18;;;;;;;4.07;3.78;;;;;;;;;;5117219;27;20031;-64
2022/06/13 00:31:44;;;;;;;4.60;3.70;;;;;;;;;;5135376;27;20375;-69
2022/06/13 00:34:09;;;;;;;4.75;3.92;;;;;;;;;;5117116;27;20031;-69
2022/06/13 00:36:34;;;;;;;4.03;3.72;;;;;;;;;;5135002;27;20020;-68
2022/06/13 00:39:00;;;;;;;5.25;3.60;;;;;;;;;;5116631;27;20038;-68
2022/06/13 00:41:28;;;;;;;3.97;3.67;;;;;;;;;;5134643;27;20027;-68
2022/06/13 00:43:55;;;;;;;3.45;3.08;;;;;;;;;;5135190;27;20019;-68
2022/06/13 00:46:25;;;;;;;3.92;3.60;;;;;;;;;;5135300;27;20015;-69
2022/06/13 00:49:10;;;;;;;4.97;3.80;;;;;;;;;;5134974;27;20416;-69
2022/06/13 00:51:36;;;;;;;3.72;3.53;;;;;;;;;;5116434;28;20063;-69
2022/06/13 00:54:02;;;;;;;3.50;3.30;;;;;;;;;;5135088;28;20458;-69
2022/06/13 00:56:29;;;;;;;3.25;3.13;;;;;;;;;;5134918;28;20139;-69
2022/06/13 00:58:59;;;;;;;3.63;3.40;;;;;;;;;;5134854;28;20024;-67
2022/06/13 01:01:24;;;;;;;4.18;3.72;;;;;;;;;;5134803;28;20028;-67
2022/06/13 01:03:50;;;;;;;4.03;3.72;;;;;;;;;;5134822;28;20016;-67
2022/06/13 01:06:16;;;;;;;6.70;4.25;;;;;;;;;;5135028;28;20070;-67
2022/06/13 01:08:44;;;;;;;7.28;4.38;;;;;;;;;;5134722;28;20015;-68
2022/06/13 01:11:16;;;;;;;10.63;5.53;;;;;;;;;;5134892;28;20016;-68
2022/06/13 01:13:54;;;;;;;5.80;4.55;;;;;;;;;;5134980;28;20379;-69
2022/06/13 01:16:19;;;;;;;4.25;3.78;;;;;;;;;;5116524;28;20126;-68
2022/06/13 01:18:56;;;;;;;4.60;3.93;;;;;;;;;;5134825;28;20070;-68
2022/06/13 01:21:23;;;;;;;6.55;3.10;;;;;;;;;;5134634;28;20054;-68
2022/06/13 01:23:48;;;;;;;4.85;3.05;;;;;;;;;;5099418;28;20020;-69
2022/06/13 01:26:22;;;;;;;3.58;3.17;;;;;;;;;;5135197;27;20518;-69
2022/06/13 01:28:57;;;;;;;4.78;3.60;;;;;;;;;;5138413;27;20027;-68
2022/06/13 01:31:41;;;;;;;4.20;3.45;;;;;;;;;;5120543;27;20037;-68
2022/06/13 01:34:15;;;;;;;5.30;3.40;;;;;;;;;;5138955;27;20031;-67
2022/06/13 01:36:40;;;;;;;3.83;3.47;;;;;;;;;;5138785;27;20019;-67
2022/06/13 01:39:13;;;;;;;4.00;3.60;;;;;;;;;;5138777;27;20515;-67
2022/06/13 01:41:41;;;;;;;4.10;3.65;;;;;;;;;;5120183;27;20277;-67
2022/06/13 01:44:19;;;;;;;3.90;3.60;;;;;;;;;;5120183;27;20026;-68
2022/06/13 01:46:53;;;;;;;4.57;3.50;;;;;;;;;;5138514;27;20023;-66
2022/06/13 01:49:24;;;;;;;4.45;3.78;;;;;;;;;;5138336;27;20023;-65
2022/06/13 01:51:55;;;;;;;7.80;4.53;;;;;;;;;;5138573;27;20076;-65
2022/06/13 01:54:29;;;;;;;11.95;6.53;;;;;;;;;;5138420;27;20443;-68
2022/06/13 01:57:00;;;;;;;9.60;5.30;;;;;;;;;;5119984;27;20359;-67
2022/06/13 01:59:28;;;;;;;9.25;5.85;;;;;;;;;;5119805;27;20042;-68
2022/06/13 02:01:56;;;;;;;7.85;5.10;;;;;;;;;;5137979;27;20109;-64
2022/06/13 02:04:21;;;;;;;5.03;3.83;;;;;;;;;;5138247;27;20023;-65
2022/06/13 02:06:57;;;;;;;5.80;4.60;;;;;;;;;;5138055;27;20094;-65
2022/06/13 02:09:28;;;;;;;9.35;5.20;;;;;;;;;;5138195;27;20033;-66
2022/06/13 02:11:54;;;;;;;8.27;4.80;;;;;;;;;;5137929;27;20023;-65
2022/06/13 02:14:22;;;;;;;6.90;4.25;;;;;;;;;;5119745;27;20030;-66
2022/06/13 02:17:03;;;;;;;9.63;5.28;;;;;;;;;;5137946;27;20064;-64
2022/06/13 02:19:32;;;;;;;28.15;10.13;;;;;;;;;;5137616;27;20031;-66
2022/06/13 02:21:59;;;;;;;18.27;7.57;;;;;;;;;;5137661;27;20047;-66
2022/06/13 02:24:28;;;;;;;9.65;4.65;;;;;;;;;;5102227;27;20021;-65
2022/06/13 02:26:56;;;;;;;3.40;3.20;;;;;;;;;;5137451;27;20042;-65
2022/06/13 02:29:31;;;;;;;3.25;2.92;;;;;;;;;;5137813;27;20063;-65
2022/06/13 02:32:04;;;;;;;7.60;4.05;;;;;;;;;;5137696;27;20110;-65
2022/06/13 02:34:35;;;;;;;4.32;3.80;;;;;;;;;;5137569;27;20031;-65
2022/06/13 02:37:00;;;;;;;4.38;3.97;;;;;;;;;;5119410;27;20035;-71
2022/06/13 02:39:26;;;;;;;4.60;3.77;;;;;;;;;;5117563;27;20023;-65
2022/06/13 02:41:54;;;;;;;5.18;3.83;;;;;;;;;;5137336;27;20284;-64
2022/06/13 02:44:26;;;;;;;4.50;3.72;;;;;;;;;;5118467;27;20015;-64
2022/06/13 02:47:05;;;;;;;4.07;3.70;;;;;;;;;;5137144;27;20035;-65
2022/06/13 02:49:33;;;;;;;3.90;3.53;;;;;;;;;;5137256;27;20031;-65
2022/06/13 02:52:08;;;;;;;4.13;3.75;;;;;;;;;;5136945;27;20054;-64
2022/06/13 02:54:36;;;;;;;3.58;3.28;;;;;;;;;;5135705;27;20045;-64
2022/06/13 03:00:07;;;;;;;3.92;3.08;;;;;;;;;;5135595;27;20039;-64
2022/06/13 03:02:32;;;;;;;4.00;2.97;;;;;;;;;;5135524;27;20035;-65
2022/06/13 03:05:00;;;;;;;4.10;3.70;;;;;;;;;;5135514;27;20019;-65
2022/06/13 03:07:25;;;;;;;8.90;4.97;;;;;;;;;;5135511;27;20720;-65
2022/06/13 03:09:56;;;;;;;19.98;9.43;;;;;;;;;;5117120;27;20102;-65
2022/06/13 03:12:35;;;;;;;15.48;7.78;;;;;;;;;;5135484;27;20070;-65
2022/06/13 03:15:03;;;;;;;11.27;6.82;;;;;;;;;;5135467;27;20023;-64
2022/06/13 03:17:42;;;;;;;8.95;5.47;;;;;;;;;;5117083;27;20021;-68
2022/06/13 03:20:08;;;;;;;5.80;4.28;;;;;;;;;;5135268;27;20070;-68
2022/06/13 03:22:33;;;;;;;5.95;4.07;;;;;;;;;;5135949;27;20358;-68
2022/06/13 03:25:03;;;;;;;5.13;3.33;;;;;;;;;;5136817;27;20059;-66
2022/06/13 03:27:35;;;;;;;4.05;3.75;;;;;;;;;;5135565;27;20380;-67
2022/06/13 03:30:03;;;;;;;3.58;3.28;;;;;;;;;;5136317;27;20027;-67
2022/06/13 03:32:31;;;;;;;4.93;3.45;;;;;;;;;;5136010;27;20030;-68
2022/06/13 03:34:58;;;;;;;5.45;3.47;;;;;;;;;;5136204;27;20058;-68
2022/06/13 03:37:31;;;;;;;4.38;3.35;;;;;;;;;;5135827;27;20027;-68
2022/06/13 03:40:02;;;;;;;10.77;3.42;;;;;;;;;;5135774;27;20130;-68
2022/06/13 03:42:38;;;;;;;4.90;3.08;;;;;;;;;;5117729;27;20472;-68
2022/06/13 03:45:06;;;;;;;3.40;3.10;;;;;;;;;;5135852;27;20075;-68
2022/06/13 03:47:36;;;;;;;3.53;3.13;;;;;;;;;;5136013;27;20098;-69
2022/06/13 03:50:10;;;;;;;3.80;3.60;;;;;;;;;;5134287;27;20034;-69
2022/06/13 03:52:37;;;;;;;5.50;3.28;;;;;;;;;;5135216;27;20023;-67
2022/06/13 03:55:12;;;;;;;3.03;2.83;;;;;;;;;;5135099;27;20467;-68
2022/06/13 03:57:43;;;;;;;3.63;3.33;;;;;;;;;;5135044;27;20039;-68
2022/06/13 04:00:17;;;;;;;4.57;3.35;;;;;;;;;;5135057;27;20037;-69
2022/06/13 04:02:43;;;;;;;5.18;4.68;;;;;;;;;;5116598;27;20039;-67
2022/06/13 04:05:22;;;;;;;5.50;3.92;;;;;;;;;;5134146;27;20019;-67
2022/06/13 04:07:48;;;;;;;3.40;3.10;;;;;;;;;;5131975;27;20110;-66
2022/06/13 04:10:15;;;;;;;3.05;2.85;;;;;;;;;;5132797;27;20538;-66
2022/06/13 04:12:59;;;;;;;3.42;3.13;;;;;;;;;;5134413;27;20553;-68
2022/06/13 04:15:30;;;;;;;3.20;2.90;;;;;;;;;;5134097;27;20046;-67
2022/06/13 04:18:14;;;;;;;3.30;3.00;;;;;;;;;;5134288;27;20572;-68
2022/06/13 04:21:01;;;;;;;5.10;4.65;;;;;;;;;;5112725;28;20123;-68
2022/06/13 04:23:33;;;;;;;7.30;3.65;;;;;;;;;;5114108;28;20120;-68
2022/06/13 04:26:17;;;;;;;3.40;3.10;;;;;;;;;;5113620;28;20038;-68
2022/06/13 04:28:46;;;;;;;3.05;2.85;;;;;;;;;;5113446;28;20076;-67
2022/06/13 04:31:13;;;;;;;2.85;2.75;;;;;;;;;;5113438;28;20022;-67
2022/06/13 04:33:43;;;;;;;3.40;3.20;;;;;;;;;;5113387;28;20467;-68
2022/06/13 04:36:11;;;;;;;3.55;3.25;;;;;;;;;;5113386;28;20386;-68
2022/06/13 04:38:39;;;;;;;3.10;2.90;;;;;;;;;;5113386;28;20019;-69
2022/06/13 04:41:05;;;;;;;2.97;2.63;;;;;;;;;;5112335;28;20040;-68
2022/06/13 04:43:35;;;;;;;12.50;8.25;;;;;;;;;;5112499;28;20024;-69
2022/06/13 04:46:05;;;;;;;5.05;4.65;;;;;;;;;;5112560;28;20027;-69
2022/06/13 04:48:31;;;;;;;4.53;4.07;;;;;;;;;;5112483;28;20069;-69
2022/06/13 04:51:00;;;;;;;6.03;3.92;;;;;;;;;;5112462;28;20459;-68
2022/06/13 04:53:28;;;;;;;4.53;3.28;;;;;;;;;;5112288;28;20465;-69
2022/06/13 04:55:54;;;;;;;3.53;3.22;;;;;;;;;;5112976;28;20023;-70
2022/06/13 04:58:23;;;;;;;4.32;3.92;;;;;;;;;;5113177;28;20031;-69
2022/06/13 05:00:52;;;;;;;8.77;4.10;;;;;;;;;;5113616;28;20016;-67
2022/06/13 05:03:22;;;;;;;5.80;4.25;;;;;;;;;;5117171;28;20484;-68
2022/06/13 05:05:51;;;;;;;8.40;5.85;;;;;;;;;;5117178;28;20066;-68
2022/06/13 05:08:22;;;;;;;6.05;5.30;;;;;;;;;;5117176;28;20057;-68
2022/06/13 05:10:49;;;;;;;4.90;4.07;;;;;;;;;;5117147;28;20065;-68
2022/06/13 05:13:15;;;;;;;4.45;4.07;;;;;;;;;;5117538;28;20016;-68
2022/06/13 05:15:40;;;;;;;4.25;3.72;;;;;;;;;;5117316;28;20038;-68
2022/06/13 05:18:24;;;;;;;6.38;4.00;;;;;;;;;;5117215;28;20024;-68
2022/06/13 05:21:07;;;;;;;5.65;4.65;;;;;;;;;;5125307;27;20119;-69
2022/06/13 05:23:51;;;;;;;4.03;3.63;;;;;;;;;;5138093;27;20035;-69
2022/06/13 05:26:17;;;;;;;3.60;3.40;;;;;;;;;;5138046;27;20516;-69
2022/06/13 05:28:43;;;;;;;4.05;3.67;;;;;;;;;;5119622;27;20054;-68
2022/06/13 05:31:19;;;;;;;4.03;3.60;;;;;;;;;;5137798;27;20023;-67
2022/06/13 05:33:45;;;;;;;6.28;3.22;;;;;;;;;;5137135;27;20711;-72
2022/06/13 05:36:14;;;;;;;3.88;2.60;;;;;;;;;;5137069;27;20070;-70
2022/06/13 05:38:41;;;;;;;4.50;3.08;;;;;;;;;;5137311;27;20069;-69
2022/06/13 05:41:07;;;;;;;2.72;2.45;;;;;;;;;;5137003;27;20073;-70
2022/06/13 05:43:32;;;;;;;5.70;3.42;;;;;;;;;;5137173;27;20031;-69
2022/06/13 05:45:58;;;;;;;2.95;2.38;;;;;;;;;;5136899;27;20038;-70
2022/06/13 05:48:24;;;;;;;3.00;2.80;;;;;;;;;;5137117;27;20113;-69
2022/06/13 05:50:49;;;;;;;3.58;2.80;;;;;;;;;;5136758;27;20111;-69
2022/06/13 05:53:17;;;;;;;5.72;3.42;;;;;;;;;;5137045;27;20050;-69
2022/06/13 05:55:42;;;;;;;3.03;2.83;;;;;;;;;;5136678;27;20493;-70
2022/06/13 05:58:11;;;;;;;3.88;2.63;;;;;;;;;;5136649;27;20027;-70
2022/06/13 06:00:38;;;;;;;3.28;2.92;;;;;;;;;;5136630;27;20019;-70
2022/06/13 06:03:03;;;;;;;3.42;3.13;;;;;;;;;;5118322;27;20538;-70
2022/06/13 06:05:29;;;;;;;4.10;3.70;;;;;;;;;;5136561;27;20051;-69
2022/06/13 06:07:55;;;;;;;2.95;2.75;;;;;;;;;;5136474;27;20511;-69
2022/06/13 06:10:22;;;;;;;2.70;2.50;;;;;;;;;;5118112;27;20023;-69
2022/06/13 06:12:48;;;;;;;3.83;2.60;;;;;;;;;;5118249;27;20030;-69
2022/06/13 06:15:13;;;;;;;2.90;2.60;;;;;;;;;;5137125;27;20102;-70
2022/06/13 06:17:39;;;;;;;3.10;2.65;;;;;;;;;;5137259;27;20459;-73
2022/06/13 06:20:05;;;;;;;4.78;3.00;;;;;;;;;;5118470;27;20070;-71
2022/06/13 06:22:31;;;;;;;3.78;3.20;;;;;;;;;;5136967;27;20114;-72
2022/06/13 06:24:56;;;;;;;3.20;3.00;;;;;;;;;;5100806;27;20106;-72
2022/06/13 06:27:22;;;;;;;5.72;3.47;;;;;;;;;;5118002;27;20478;-72
2022/06/13 06:29:47;;;;;;;7.47;3.78;;;;;;;;;;5137189;27;20471;-72
2022/06/13 06:32:13;;;;;;;12.60;7.28;;;;;;;;;;5136997;27;20103;-71
2022/06/13 06:34:38;;;;;;;8.02;4.80;;;;;;;;;;5137084;27;20016;-72
2022/06/13 06:37:03;;;;;;;12.68;6.10;;;;;;;;;;5136890;27;20026;-71
2022/06/13 06:39:29;;;;;;;12.85;6.63;;;;;;;;;;5136270;27;20327;-71
2022/06/13 06:41:55;;;;;;;17.95;7.90;;;;;;;;;;5136429;27;20023;-72
2022/06/13 06:44:21;;;;;;;21.70;9.98;;;;;;;;;;5136612;27;20016;-71
2022/06/13 06:46:48;;;;;;;14.30;8.52;;;;;;;;;;5136255;27;20031;-71
2022/06/13 06:49:13;;;;;;;7.57;5.78;;;;;;;;;;5135361;27;20404;-71
2022/06/13 06:51:41;;;;;;;8.88;5.97;;;;;;;;;;5135810;27;20088;-71
2022/06/13 06:59:53;;;;;;;6.90;5.38;;;;;;;;;;5136564;27;20100;-67
2022/06/13 07:02:20;;;;;;;9.23;5.72;;;;;;;;;;5136590;27;20390;-66
2022/06/13 07:04:46;;;;;;;7.80;5.00;;;;;;;;;;5136428;27;20374;-67
2022/06/13 07:07:11;;;;;;;9.13;6.38;;;;;;;;;;5136401;27;20033;-67
2022/06/13 07:09:36;;;;;;;9.73;5.83;;;;;;;;;;5136398;27;20015;-66
2022/06/13 07:12:02;;;;;;;8.55;6.45;;;;;;;;;;5118104;27;20356;-66
2022/06/13 07:14:29;;;;;;;13.20;6.35;;;;;;;;;;5118168;27;20023;-66
2022/06/13 07:16:56;;;;;;;6.63;5.60;;;;;;;;;;5100825;27;20450;-66
2022/06/13 07:19:22;;;;;;;9.02;6.43;;;;;;;;;;5117785;27;20481;-65
2022/06/13 07:21:48;;;;;;;7.90;6.07;;;;;;;;;;5117552;27;20043;-66
2022/06/13 07:24:14;;;;;;;8.82;4.72;;;;;;;;;;5135474;27;20035;-65
2022/06/13 07:26:40;;;;;;;8.70;5.30;;;;;;;;;;5136034;27;20386;-66
2022/06/13 07:29:05;;;;;;;8.20;4.80;;;;;;;;;;5135980;27;20022;-71
2022/06/13 07:31:41;;;;;;;4.47;4.10;;;;;;;;;;5135968;27;20015;-71
2022/06/13 07:34:11;;;;;;;7.93;5.45;;;;;;;;;;5135869;27;20134;-71
2022/06/13 07:36:36;;;;;;;5.00;4.47;;;;;;;;;;5117437;27;20397;-71
2022/06/13 07:39:01;;;;;;;6.15;4.38;;;;;;;;;;5135772;27;20030;-71
2022/06/13 07:41:27;;;;;;;6.35;4.75;;;;;;;;;;5135694;27;20057;-70
2022/06/13 07:43:53;;;;;;;6.95;4.38;;;;;;;;;;5135535;27;20035;-71
2022/06/13 07:46:20;;;;;;;5.25;4.40;;;;;;;;;;5135624;27;20022;-71
2022/06/13 07:48:48;;;;;;;5.75;4.80;;;;;;;;;;5135978;27;20115;-71
2022/06/13 07:51:13;;;;;;;4.95;4.45;;;;;;;;;;5135776;27;20026;-72
2022/06/13 07:53:38;;;;;;;4.97;4.53;;;;;;;;;;5135480;27;20031;-71
2022/06/13 07:56:04;;;;;;;5.53;4.97;;;;;;;;;;5135156;27;20058;-71
2022/06/13 07:58:34;;;;;;;5.18;4.68;;;;;;;;;;5135775;27;20035;-71
2022/06/13 08:00:59;;;;;;;;;;;;;;;;;;5136390;27;20529;-71
2022/06/13 08:03:28;;;;;;;5.73;5.10;;;;;;;;;;5135732;27;19997;-71
2022/06/13 08:05:53;;;;;;;8.77;6.22;;;;;;;;;;5134765;27;20261;-71
2022/06/13 08:08:19;;;;;;;8.50;5.35;;;;;;;;;;5115926;27;20094;-71
2022/06/13 08:10:45;;;;;;;7.18;6.07;;;;;;;;;;5134119;27;20462;-71
2022/06/13 08:13:14;;;;;;;6.32;5.78;;;;;;;;;;5134377;27;20094;-71
2022/06/13 08:15:39;;;;;;;7.03;5.33;;;;;;;;;;5134040;27;20065;-71
2022/06/13 08:18:05;;;;;;;6.70;6.10;;;;;;;;;;5134018;27;20289;-71
2022/06/13 08:20:30;;;;;;;7.25;5.53;;;;;;;;;;5134134;27;20163;-71
2022/06/13 08:22:58;;;;;;;5.43;4.90;;;;;;;;;;5133804;27;20066;-71
2022/06/13 08:25:28;;;;;;;4.72;4.35;;;;;;;;;;5133956;27;20110;-71
2022/06/13 08:27:54;;;;;;;5.28;4.05;;;;;;;;;;5133962;27;20118;-71
2022/06/13 08:30:20;;;;;;;3.58;3.25;;;;;;;;;;5133896;27;20471;-71
2022/06/13 08:32:45;;;;;;;3.47;3.20;;;;;;;;;;5115424;27;20066;-71
2022/06/13 08:35:11;;;;;;;4.47;2.78;;;;;;;;;;5133693;27;20072;-71
2022/06/13 08:37:36;;;;;;;2.85;2.67;;;;;;;;;;5132762;27;20107;-71
2022/06/13 08:40:03;;;;;;;2.80;2.60;;;;;;;;;;5133688;27;20027;-71
2022/06/13 08:42:28;;;;;;;3.50;2.83;;;;;;;;;;5133464;27;20050;-71
2022/06/13 08:45:00;;;;;;;2.90;2.70;;;;;;;;;;5133546;27;20022;-71
2022/06/13 08:47:44;;;;;;;3.17;2.65;;;;;;;;;;5133530;27;20027;-71
2022/06/13 08:50:15;;;;;;;3.17;2.80;;;;;;;;;;5133552;27;20036;-65
2022/06/13 08:52:44;;;;;;;3.15;2.88;;;;;;;;;;5115132;28;20035;-65
2022/06/13 08:55:13;;;;;;;3.40;3.00;;;;;;;;;;5133633;27;20051;-65
2022/06/13 08:57:43;;;;;;;2.50;2.30;;;;;;;;;;5133873;28;20031;-67
2022/06/13 09:00:12;;;;;;;3.20;3.00;;;;;;;;;;5133548;28;20023;-66
2022/06/13 09:02:37;;;;;;;2.63;2.42;;;;;;;;;;5133381;28;20026;-67
2022/06/13 09:05:14;;;;;;;2.63;2.43;;;;;;;;;;5133447;28;20072;-67
2022/06/13 09:07:42;;;;;;;2.30;2.20;;;;;;;;;;5133459;28;20267;-67
2022/06/13 09:10:14;;;;;;;2.50;2.40;;;;;;;;;;5133401;28;20406;-66
2022/06/13 09:12:47;;;;;;;2.15;1.90;;;;;;;;;;5133389;28;20489;-65
2022/06/13 09:15:15;;;;;;;3.10;2.78;;;;;;;;;;5133417;28;20038;-67
2022/06/13 09:17:52;;;;;;;2.50;2.35;;;;;;;;;;5133336;28;20007;-67
2022/06/13 09:20:20;;;;;;;2.50;2.30;;;;;;;;;;5133090;28;20039;-67
2022/06/13 09:22:45;;;;;;;2.25;2.15;;;;;;;;;;5133193;28;20530;-68
2022/06/13 09:25:17;;;;;;;2.75;2.50;;;;;;;;;;5133890;28;20107;-65
2022/06/13 09:27:54;;;;;;;2.47;2.28;;;;;;;;;;5133315;28;20039;-68
2022/06/13 09:30:23;;;;;;;2.80;2.60;;;;;;;;;;5133181;28;20424;-67
2022/06/13 09:33:00;;;;;;;3.10;2.42;;;;;;;;;;5133202;28;20110;-67
2022/06/13 09:35:31;;;;;;;2.42;2.20;;;;;;;;;;5133090;28;20066;-67
2022/06/13 09:38:15;;;;;;;2.47;2.10;;;;;;;;;;5133104;28;20084;-66
2022/06/13 09:40:55;;;;;;;1.70;1.60;;;;;;;;;;5114673;28;20147;-67
2022/06/13 09:43:27;;;;;;;2.10;2.00;;;;;;;;;;5133040;28;20066;-67
2022/06/13 09:45:58;;;;;;;2.47;2.38;;;;;;;;;;5114615;28;20351;-68
2022/06/13 09:48:42;;;;;;;2.00;1.90;;;;;;;;;;5135264;27;20034;-68
2022/06/13 09:51:27;;;;;;;1.65;1.55;;;;;;;;;;5136923;27;20046;-67
2022/06/13 09:53:56;;;;;;;1.42;1.40;;;;;;;;;;5118394;27;20027;-68
2022/06/13 09:56:30;;;;;;;1.30;1.20;;;;;;;;;;5136874;27;20470;-67
2022/06/13 09:58:55;;;;;;;1.48;1.38;;;;;;;;;;5136716;27;20027;-68
2022/06/13 10:01:43;;;;;;;1.08;1.08;;;;;;;;;;5137035;27;20410;-68
2022/06/13 10:04:11;;;;;;;1.50;1.40;;;;;;;;;;5136649;27;20118;-68
2022/06/13 10:06:45;;;;;;;1.65;1.55;;;;;;;;;;5118187;27;20039;-68
2022/06/13 10:09:35;;;;;;;1.70;1.60;;;;;;;;;;5118070;27;20019;-68
2022/06/13 10:12:19;;;;;;;1.75;1.65;;;;;;;;;;5136477;27;20069;-67
2022/06/13 10:15:04;;;;;;;1.60;1.50;;;;;;;;;;5136407;27;20083;-67
2022/06/13 10:17:36;;;;;;;1.55;1.45;;;;;;;;;;5136460;27;20105;-68
2022/06/13 10:20:06;;;;;;;1.67;1.58;;;;;;;;;;5117843;27;20415;-68
2022/06/13 10:22:53;;;;;;;1.60;1.50;;;;;;;;;;5136174;27;20209;-68
2022/06/13 10:25:19;;;;;;;2.35;1.90;;;;;;;;;;5104148;27;20042;-67
2022/06/13 10:27:44;;;;;;;1.98;1.80;;;;;;;;;;5117778;27;20015;-67
2022/06/13 10:30:17;;;;;;;2.33;1.80;;;;;;;;;;5117742;27;20039;-67
2022/06/13 10:33:09;;;;;;;1.85;1.75;;;;;;;;;;5136073;27;20103;-67
2022/06/13 10:35:40;;;;;;;1.75;1.65;;;;;;;;;;5086636;27;20406;-67
2022/06/13 10:38:05;;;;;;;1.60;1.50;;;;;;;;;;5136036;27;20497;-68
2022/06/13 10:40:32;;;;;;;1.90;1.80;;;;;;;;;;5135949;27;20027;-67
2022/06/13 10:42:58;;;;;;;1.90;1.80;;;;;;;;;;5135774;27;20284;-67
2022/06/13 10:45:23;;;;;;;3.45;2.20;;;;;;;;;;5117355;27;20026;-67
2022/06/13 10:47:52;;;;;;;2.28;2.08;;;;;;;;;;5136977;27;20033;-68
2022/06/13 10:50:22;;;;;;;2.63;2.47;;;;;;;;;;5136533;27;20043;-67
2022/06/13 10:52:50;;;;;;;2.80;2.60;;;;;;;;;;5101364;27;20371;-69
2022/06/13 10:55:17;;;;;;;2.83;2.63;;;;;;;;;;5136653;27;20054;-69
2022/06/13 10:57:45;;;;;;;2.75;2.55;;;;;;;;;;5136642;27;20578;-68
2022/06/13 11:00:16;;;;;;;2.58;2.17;;;;;;;;;;5100295;27;20158;-70
2022/06/13 11:02:42;;;;;;;3.35;2.30;;;;;;;;;;5136516;27;20081;-69
2022/06/13 11:05:07;;;;;;;2.40;2.20;;;;;;;;;;5118223;27;20483;-69
2022/06/13 11:07:35;;;;;;;2.90;2.70;;;;;;;;;;5136413;27;20062;-68
2022/06/13 11:10:01;;;;;;;3.03;2.83;;;;;;;;;;5136595;27;20020;-69
2022/06/13 11:12:29;;;;;;;4.05;3.50;;;;;;;;;;5136283;27;20054;-69
2022/06/13 11:23:13;;;;;;;5.97;4.28;;;;;;;;;;5136013;27;20428;-67
2022/06/13 11:25:39;;;;;;;3.65;3.20;;;;;;;;;;5136095;27;20015;-68
2022/06/13 11:28:04;;;;;;;4.03;3.47;;;;;;;;;;5136111;27;20031;-69
2022/06/13 11:30:37;;;;;;;4.82;3.75;;;;;;;;;;5136079;27;20378;-73
2022/06/13 11:33:05;;;;;;;3.90;3.35;;;;;;;;;;5135135;27;20027;-65
2022/06/13 11:35:38;;;;;;;4.65;3.95;;;;;;;;;;5134754;27;20067;-67
2022/06/13 11:38:22;;;;;;;3.28;3.08;;;;;;;;;;5134737;27;20031;-68
2022/06/13 11:41:06;;;;;;;3.30;3.00;;;;;;;;;;5134747;27;20031;-68
2022/06/13 11:43:34;;;;;;;3.20;3.00;;;;;;;;;;5134558;27;20031;-68
2022/06/13 11:46:01;;;;;;;3.03;2.30;;;;;;;;;;5134667;27;20027;-70
2022/06/13 11:48:28;;;;;;;3.00;2.80;;;;;;;;;;5134656;27;20050;-66
2022/06/13 11:50:55;;;;;;;2.28;2.08;;;;;;;;;;5134546;27;20024;-67
2022/06/13 11:53:36;;;;;;;3.38;2.47;;;;;;;;;;5134471;27;20039;-66
2022/06/13 11:56:02;;;;;;;2.80;2.35;;;;;;;;;;5134480;27;20525;-65
2022/06/13 11:58:29;;;;;;;2.50;2.30;;;;;;;;;;5134494;27;20061;-66
2022/06/13 12:01:01;;;;;;;4.50;2.38;;;;;;;;;;5134389;27;20082;-66
2022/06/13 12:03:27;;;;;;;2.60;2.40;;;;;;;;;;5134172;27;20043;-65
2022/06/13 12:05:57;;;;;;;2.10;2.00;;;;;;;;;;5134336;27;20023;-66
2022/06/13 12:08:25;;;;;;;3.20;2.13;;;;;;;;;;5134280;27;20039;-66
2022/06/13 12:10:58;;;;;;;1.83;1.73;;;;;;;;;;5115625;27;20364;-66
2022/06/13 12:13:24;;;;;;;1.63;1.35;;;;;;;;;;5115871;27;20031;-65
2022/06/13 12:15:53;;;;;;;2.35;1.45;;;;;;;;;;5115727;27;20026;-66
2022/06/13 12:18:18;;;;;;;1.50;1.40;;;;;;;;;;5134050;27;20023;-66
2022/06/13 12:20:56;;;;;;;1.70;1.52;;;;;;;;;;5115501;27;20051;-67
2022/06/13 12:23:28;;;;;;;1.75;1.63;;;;;;;;;;5134777;27;20038;-66
2022/06/13 12:26:16;;;;;;;1.65;1.55;;;;;;;;;;5135393;27;20019;-66
2022/06/13 12:28:54;;;;;;;1.85;1.73;;;;;;;;;;5134255;27;20084;-66
2022/06/13 12:31:26;;;;;;;2.25;2.05;;;;;;;;;;5134170;27;20027;-66
2022/06/13 12:33:59;;;;;;;2.63;2.47;;;;;;;;;;5133286;27;20037;-66
2022/06/13 12:36:48;;;;;;;3.03;2.83;;;;;;;;;;5132672;27;20039;-66
2022/06/13 12:39:13;;;;;;;2.72;2.58;;;;;;;;;;5133043;27;20031;-65
2022/06/13 12:41:41;;;;;;;2.77;2.57;;;;;;;;;;5132361;27;20015;-65
2022/06/13 12:44:07;;;;;;;4.50;3.20;;;;;;;;;;5131260;27;20677;-65
2022/06/13 12:46:35;;;;;;;3.17;2.97;;;;;;;;;;5131843;27;20069;-65
2022/06/13 12:49:19;;;;;;;4.45;3.40;;;;;;;;;;5131940;27;20046;-65
2022/06/13 12:51:51;;;;;;;3.08;2.97;;;;;;;;;;5132574;27;20050;-66
2022/06/13 12:54:26;;;;;;;2.85;2.75;;;;;;;;;;5132574;27;20386;-65
2022/06/13 12:56:57;;;;;;;3.78;2.70;;;;;;;;;;5132652;27;20049;-65
2022/06/13 12:59:29;;;;;;;2.55;2.45;;;;;;;;;;5132459;28;20019;-66
2022/06/13 13:02:14;;;;;;;2.80;2.60;;;;;;;;;;5132311;28;20038;-66
2022/06/13 13:04:39;;;;;;;2.30;2.10;;;;;;;;;;5133417;28;20042;-66
2022/06/13 13:07:13;;;;;;;2.30;2.20;;;;;;;;;;5133395;28;20062;-66
2022/06/13 13:10:01;;;;;;;2.08;1.98;;;;;;;;;;5133405;28;20745;-65
2022/06/13 13:12:41;;;;;;;1.98;1.88;;;;;;;;;;5133624;28;20059;-66
2022/06/13 13:15:11;;;;;;;2.15;2.05;;;;;;;;;;5133375;28;20345;-65
2022/06/13 13:17:47;;;;;;;2.10;2.00;;;;;;;;;;5133258;28;20035;-66
2022/06/13 13:20:16;;;;;;;1.88;1.77;;;;;;;;;;5133113;28;20038;-66
2022/06/13 13:22:50;;;;;;;1.98;1.88;;;;;;;;;;5134257;27;20019;-66
2022/06/13 13:25:39;;;;;;;1.90;1.80;;;;;;;;;;5137384;27;20113;-66
2022/06/13 13:28:16;;;;;;;1.80;1.70;;;;;;;;;;5098652;27;20527;-66
2022/06/13 13:30:57;;;;;;;1.85;1.75;;;;;;;;;;5137341;27;20055;-65
2022/06/13 13:33:37;;;;;;;1.80;1.70;;;;;;;;;;5137531;27;20027;-66
2022/06/13 13:36:21;;;;;;;3.30;1.67;;;;;;;;;;5137271;27;20470;-66
2022/06/13 13:38:49;;;;;;;1.75;1.65;;;;;;;;;;5137274;27;20035;-66
2022/06/13 13:41:24;;;;;;;2.92;2.00;;;;;;;;;;5137097;27;20395;-66
2022/06/13 13:44:00;;;;;;;1.60;1.50;;;;;;;;;;5137022;27;20023;-66
2022/06/13 13:46:29;;;;;;;1.50;1.40;;;;;;;;;;5136958;27;20058;-65
2022/06/13 13:49:12;;;;;;;1.73;1.50;;;;;;;;;;5136963;27;20057;-66
2022/06/13 13:51:52;;;;;;;1.42;1.33;;;;;;;;;;5136884;27;20031;-66
2022/06/13 13:54:17;;;;;;;2.33;1.38;;;;;;;;;;5136799;27;20027;-66
2022/06/13 13:56:57;;;;;;;2.80;1.80;;;;;;;;;;5136767;27;20026;-67
2022/06/13 13:59:28;;;;;;;2.95;1.88;;;;;;;;;;5136808;27;20344;-64
2022/06/13 14:02:03;;;;;;;3.13;1.67;;;;;;;;;;5136614;27;20019;-66
2022/06/13 14:04:49;;;;;;;1.23;1.13;;;;;;;;;;5136643;27;20574;-65
2022/06/13 14:07:38;;;;;;;3.88;1.70;;;;;;;;;;5135993;27;20482;-65
2022/06/13 14:10:04;;;;;;;2.97;1.80;;;;;;;;;;5136479;27;20015;-66
2022/06/13 14:12:30;;;;;;;2.90;2.03;;;;;;;;;;5136481;27;20083;-66
2022/06/13 14:14:58;;;;;;;2.38;1.70;;;;;;;;;;5136350;27;20463;-66
2022/06/13 14:17:28;;;;;;;3.03;1.85;;;;;;;;;;5136381;27;20022;-66
2022/06/13 14:19:55;;;;;;;2.42;1.60;;;;;;;;;;5134003;27;20046;-72
2022/06/13 14:22:22;;;;;;;1.55;1.45;;;;;;;;;;5136189;27;20505;-66
2022/06/13 14:25:03;;;;;;;2.22;1.52;;;;;;;;;;5136262;27;20007;-64
2022/06/13 14:27:29;;;;;;;2.30;1.95;;;;;;;;;;5136140;27;20031;-66
2022/06/13 14:31:03;;;;;;;1.60;1.50;;;;;;;;;;5136204;27;20035;-65
2022/06/13 14:32:40;;;;;;;2.25;1.70;;;;;;;;;;5136049;27;20100;-65
2022/06/13 14:35:31;;;;;;;1.67;1.52;;;;;;;;;;5134284;27;20118;-65
2022/06/13 14:37:57;;;;;;;1.63;1.50;;;;;;;;;;5135828;27;20277;-66
2022/06/13 14:40:25;;;;;;;3.70;1.50;;;;;;;;;;5136494;27;20091;-66
2022/06/13 14:42:58;;;;;;;2.45;1.60;;;;;;;;;;5137134;27;20031;-67
2022/06/13 14:45:44;;;;;;;2.33;1.42;;;;;;;;;;5137126;27;20062;-65
2022/06/13 14:48:25;;;;;;;2.20;1.92;;;;;;;;;;5136115;27;20494;-67
2022/06/13 14:50:56;;;;;;;1.50;1.42;;;;;;;;;;5135839;27;20022;-66
2022/06/13 14:53:22;;;;;;;1.67;1.40;;;;;;;;;;5135745;27;20374;-66
2022/06/13 14:56:06;;;;;;;2.35;1.30;;;;;;;;;;5137108;27;20023;-66
2022/06/13 14:58:50;;;;;;;4.63;1.50;;;;;;;;;;5136704;27;20059;-66
2022/06/13 15:01:21;;;;;;;1.85;1.30;;;;;;;;;;5136576;27;20027;-66
2022/06/13 15:04:02;;;;;;;1.58;1.42;;;;;;;;;;5134422;27;20035;-66
2022/06/13 15:06:46;;;;;;;1.77;1.60;;;;;;;;;;5134336;27;20035;-65
2022/06/13 15:09:12;;;;;;;1.70;1.60;;;;;;;;;;5134323;27;20533;-66
2022/06/13 15:11:40;;;;;;;3.40;1.70;;;;;;;;;;5134295;27;20023;-66
2022/06/13 15:14:09;;;;;;;1.75;1.63;;;;;;;;;;5134252;27;20359;-66
2022/06/13 15:16:36;;;;;;;2.63;1.88;;;;;;;;;;5134162;27;20046;-65
2022/06/13 15:19:03;;;;;;;1.92;1.73;;;;;;;;;;5134547;27;20083;-65